Time;durP1;ratioP1;P1;durP2;ratioP2;P2;SDS_P1;SDS_P2;PMS_P1;PMS_P2;Temp;Humidity;BMP_temperature;BMP_pressure;BME280_temperature;BME280_humidity;BME280_pressure;Samples;Min_cycle;Max_cycle;Signal;HPM_P1;HPM_P2
2022/10/30 00:00:49;;;;;;;69.45;34.65;;;;;;;9.59;88.78;95047.17;1692424;84;21444;-61
2022/10/30 00:03:17;;;;;;;57.30;30.08;;;;;;;9.55;88.55;95043.75;1688052;84;21043;-59
2022/10/30 00:05:48;;;;;;;44.40;23.45;;;;;;;9.52;88.78;95046.00;1683549;84;21215;-61
2022/10/30 00:08:17;;;;;;;32.50;18.17;;;;;;;9.54;88.94;95038.09;1659702;84;21514;-59
2022/10/30 00:10:46;;;;;;;27.65;16.77;;;;;;;9.60;89.55;95030.10;1692272;84;21118;-61
2022/10/30 00:13:14;;;;;;;37.30;22.48;;;;;;;9.70;90.08;95027.66;1684052;84;21467;-59
2022/10/30 00:15:52;;;;;;;40.08;20.00;;;;;;;9.77;89.77;95021.98;1676286;84;21452;-60
2022/10/30 00:18:19;;;;;;;26.80;15.63;;;;;;;9.80;89.85;95028.73;1689853;84;21199;-59
2022/10/30 00:20:46;;;;;;;41.88;23.90;;;;;;;9.87;89.81;95031.88;1683979;84;21087;-60
2022/10/30 00:23:13;;;;;;;34.70;20.97;;;;;;;9.91;89.57;95030.59;1689264;84;21015;-59
2022/10/30 00:25:41;;;;;;;31.95;20.08;;;;;;;9.93;89.72;95041.13;1687367;84;21036;-60
2022/10/30 00:28:08;;;;;;;26.85;16.32;;;;;;;9.94;89.66;95037.95;1687181;84;20984;-60
2022/10/30 00:30:35;;;;;;;23.27;14.55;;;;;;;9.95;89.65;95037.37;1683555;83;22021;-60
2022/10/30 00:33:03;;;;;;;45.92;25.97;;;;;;;9.96;89.91;95044.41;1687619;83;20992;-58
2022/10/30 00:35:30;;;;;;;59.20;29.23;;;;;;;9.95;89.34;95046.98;1686818;83;20996;-61
2022/10/30 00:37:57;;;;;;;53.50;28.65;;;;;;;9.86;89.06;95038.59;1688476;84;21016;-59
2022/10/30 00:40:24;;;;;;;51.55;29.00;;;;;;;9.81;89.00;95045.38;1688825;84;21079;-60
2022/10/30 00:42:51;;;;;;;55.50;28.83;;;;;;;9.73;88.92;95041.89;1685777;83;21160;-59
2022/10/30 00:45:18;;;;;;;47.88;27.70;;;;;;;9.68;89.19;95030.06;1677039;84;21091;-59
2022/10/30 00:47:54;;;;;;;49.75;26.48;;;;;;;9.66;89.37;95024.99;1675197;84;21610;-59
2022/10/30 00:50:28;;;;;;;53.23;29.18;;;;;;;9.68;89.47;95030.84;1687068;84;21098;-60
2022/10/30 00:53:13;;;;;;;44.53;25.65;;;;;;;9.72;89.49;95037.02;1633785;85;21142;-59
2022/10/30 00:55:46;;;;;;;54.55;29.87;;;;;;;9.75;89.27;95035.35;1684304;84;21858;-60
2022/10/30 00:58:15;;;;;;;53.13;30.00;;;;;;;9.72;88.95;95036.23;1685427;84;20964;-59
2022/10/30 01:00:47;;;;;;;57.88;31.73;;;;;;;9.65;88.59;95030.94;1685153;84;21355;-59
2022/10/30 01:03:14;;;;;;;50.10;27.67;;;;;;;9.57;88.83;95028.20;1681218;84;21452;-60
2022/10/30 01:05:43;;;;;;;53.08;25.10;;;;;;;9.56;89.14;95030.19;1678897;84;21096;-57
2022/10/30 01:08:10;;;;;;;43.05;23.62;;;;;;;9.56;88.93;95026.66;1654431;85;21371;-58
2022/10/30 01:10:37;;;;;;;37.48;21.75;;;;;;;9.50;88.66;95031.14;1664260;85;21097;-59
2022/10/30 01:13:04;;;;;;;42.75;22.02;;;;;;;9.41;88.92;95033.75;1627598;86;21078;-60
2022/10/30 01:15:35;;;;;;;42.85;22.77;;;;;;;9.42;89.25;95032.55;1649624;86;20986;-60
2022/10/30 01:18:30;;;;;;;41.30;21.55;;;;;;;9.42;89.58;95027.06;1654107;86;21041;-60
2022/10/30 01:21:12;;;;;;;34.20;20.90;;;;;;;9.45;89.72;95024.81;1644723;85;21236;-60
2022/10/30 01:24:18;;;;;;;48.65;26.40;;;;;;;9.50;90.03;95031.14;1663439;85;20984;-61
2022/10/30 01:27:17;;;;;;;45.78;26.05;;;;;;;9.57;90.08;95019.95;1660597;85;20992;-59
2022/10/30 01:30:15;;;;;;;34.58;19.98;;;;;;;9.56;89.87;95019.79;1671308;85;21020;-61
2022/10/30 01:32:54;;;;;;;31.17;18.23;;;;;;;9.52;90.07;95010.88;1664495;85;20969;-60
2022/10/30 01:35:27;;;;;;;30.10;18.02;;;;;;;9.52;90.18;95015.00;1654437;85;21288;-60
2022/10/30 01:38:11;;;;;;;41.18;21.95;;;;;;;9.56;90.43;95010.18;1659690;85;21622;-60
2022/10/30 01:40:38;;;;;;;50.92;26.12;;;;;;;9.61;90.47;95007.68;1668935;83;21112;-60
2022/10/30 01:43:05;;;;;;;53.92;27.48;;;;;;;9.61;90.13;95017.91;1692150;84;21098;-58
2022/10/30 01:45:54;;;;;;;56.10;29.20;;;;;;;9.59;89.95;95021.08;1676478;84;21087;-61
2022/10/30 01:49:09;;;;;;;50.25;25.65;;;;;;;9.56;89.93;95014.30;1690404;83;21968;-61
2022/10/30 01:52:02;;;;;;;42.98;23.02;;;;;;;9.55;89.97;95012.76;1690664;84;21075;-59
2022/10/30 01:54:43;;;;;;;58.33;29.10;;;;;;;9.55;90.46;95005.89;1612813;85;21175;-62
2022/10/30 01:57:35;;;;;;;51.45;22.98;;;;;;;9.62;90.38;95004.34;1635275;85;21446;-61
2022/10/30 02:00:11;;;;;;;50.28;26.82;;;;;;;9.65;90.51;95004.84;1645102;86;21103;-61
2022/10/30 02:02:43;;;;;;;57.53;26.48;;;;;;;9.65;90.08;95003.47;1649849;85;21135;-59
2022/10/30 02:05:15;;;;;;;44.80;23.20;;;;;;;9.64;90.38;95000.55;1667199;85;20980;-60
2022/10/30 02:07:42;;;;;;;48.13;25.12;;;;;;;9.67;90.09;94994.19;1651514;85;21028;-61
2022/10/30 02:10:10;;;;;;;46.77;24.23;;;;;;;9.63;90.21;95001.77;1652345;86;21083;-59
2022/10/30 02:12:37;;;;;;;46.30;27.25;;;;;;;9.65;90.81;95001.48;1683581;84;20979;-61
2022/10/30 02:15:06;;;;;;;49.10;26.40;;;;;;;9.72;90.66;94997.77;1664719;84;21852;-61
2022/10/30 02:17:34;;;;;;;45.33;25.02;;;;;;;9.73;90.34;94995.19;1690345;84;20971;-57
2022/10/30 02:20:01;;;;;;;42.90;24.18;;;;;;;9.75;90.26;94992.77;1690311;84;21042;-59
2022/10/30 02:22:30;;;;;;;48.25;23.98;;;;;;;9.80;90.52;94982.64;1688761;84;21060;-59
2022/10/30 02:24:56;;;;;;;36.50;20.80;;;;;;;9.88;90.49;94988.09;1689638;84;21652;-60
2022/10/30 02:27:24;;;;;;;43.98;22.55;;;;;;;9.94;90.47;94986.33;1688387;84;21271;-59
2022/10/30 02:29:51;;;;;;;48.87;23.70;;;;;;;10.03;90.66;94987.28;1688986;84;21008;-59
2022/10/30 02:32:18;;;;;;;49.83;23.20;;;;;;;10.07;90.08;94985.20;1686376;84;21111;-59
2022/10/30 02:34:45;;;;;;;44.18;23.10;;;;;;;10.07;89.81;94981.66;1687492;84;21066;-59
2022/10/30 02:37:13;;;;;;;45.48;23.73;;;;;;;10.09;89.47;94980.62;1686841;83;20972;-58
2022/10/30 02:39:40;;;;;;;43.05;22.45;;;;;;;10.10;89.86;94985.69;1641797;85;21329;-59
2022/10/30 02:42:07;;;;;;;42.13;23.52;;;;;;;10.14;89.89;94987.73;1665964;85;21032;-59
2022/10/30 02:44:34;;;;;;;35.00;21.80;;;;;;;10.18;89.95;94987.63;1670398;85;21453;-60
2022/10/30 02:47:02;;;;;;;39.27;21.17;;;;;;;10.16;90.20;94988.05;1688178;84;20979;-59
2022/10/30 02:49:29;;;;;;;40.95;20.97;;;;;;;10.16;90.17;94985.92;1656666;85;21023;-59
2022/10/30 02:51:56;;;;;;;30.82;17.77;;;;;;;10.17;90.38;94987.47;1683484;84;21242;-59
2022/10/30 02:54:23;;;;;;;38.67;20.43;;;;;;;10.19;90.76;94987.17;1687638;84;20979;-61
2022/10/30 02:56:51;;;;;;;31.75;19.32;;;;;;;10.22;90.89;94976.70;1690775;84;21107;-61
2022/10/30 02:59:19;;;;;;;33.58;18.70;;;;;;;10.29;91.15;94971.56;1685589;84;21014;-58
2022/10/30 03:01:48;;;;;;;30.05;19.00;;;;;;;10.36;91.24;94979.61;1690518;83;20988;-59
2022/10/30 03:04:15;;;;;;;29.87;17.82;;;;;;;10.39;90.85;94983.61;1679399;84;21152;-58
2022/10/30 03:06:43;;;;;;;28.87;17.45;;;;;;;10.42;90.85;94977.25;1684362;84;21150;-59
2022/10/30 03:09:09;;;;;;;25.25;16.52;;;;;;;10.44;90.61;94977.58;1684152;83;21047;-60
2022/10/30 03:11:37;;;;;;;27.90;16.23;;;;;;;10.48;90.96;94976.08;1685619;84;21027;-60
2022/10/30 03:14:05;;;;;;;35.17;17.10;;;;;;;10.51;90.85;94973.84;1663159;84;21491;-59
2022/10/30 03:16:32;;;;;;;27.87;16.17;;;;;;;10.53;90.81;94973.55;1690795;83;21832;-60
2022/10/30 03:19:01;;;;;;;28.50;15.45;;;;;;;10.57;90.69;94973.45;1684514;84;20984;-60
2022/10/30 03:21:29;;;;;;;24.87;15.23;;;;;;;10.57;90.60;94974.20;1689254;84;21455;-59
2022/10/30 03:23:56;;;;;;;32.58;16.15;;;;;;;10.60;90.76;94973.94;1687378;84;21067;-59
2022/10/30 03:26:23;;;;;;;26.95;15.10;;;;;;;10.61;91.03;94965.84;1687238;84;21093;-58
2022/10/30 03:28:53;;;;;;;25.57;14.13;;;;;;;10.66;91.19;94966.66;1684773;84;21272;-58
2022/10/30 03:31:20;;;;;;;22.32;14.25;;;;;;;10.71;91.26;94970.25;1652634;84;21021;-59
2022/10/30 03:33:49;;;;;;;25.88;15.30;;;;;;;10.76;91.34;94963.59;1682043;84;21083;-58
2022/10/30 03:36:15;;;;;;;31.40;18.82;;;;;;;10.79;91.16;94956.57;1683791;85;21078;-59
2022/10/30 03:38:43;;;;;;;47.03;32.15;;;;;;;10.78;90.90;94960.53;1678791;83;21126;-59
2022/10/30 03:41:11;;;;;;;34.13;24.95;;;;;;;10.79;91.13;94956.57;1679061;84;21295;-59
2022/10/30 03:43:39;;;;;;;29.77;17.82;;;;;;;10.78;91.13;94948.16;1685762;84;21511;-59
2022/10/30 03:46:07;;;;;;;29.90;18.87;;;;;;;10.74;90.77;94955.77;1685366;84;21535;-60
2022/10/30 03:48:35;;;;;;;27.95;16.48;;;;;;;10.70;90.65;94961.83;1678846;83;20968;-59
2022/10/30 03:51:02;;;;;;;27.15;15.98;;;;;;;10.65;90.64;94965.12;1689924;83;21007;-59
2022/10/30 03:53:30;;;;;;;27.35;16.57;;;;;;;10.60;90.67;94952.70;1682383;84;21164;-58
2022/10/30 03:56:00;;;;;;;27.20;17.77;;;;;;;10.58;90.75;94961.23;1683679;84;21063;-59
2022/10/30 03:58:28;;;;;;;27.30;16.97;;;;;;;10.59;90.99;94962.77;1687104;84;21559;-59
2022/10/30 04:01:04;;;;;;;26.12;16.17;;;;;;;10.63;91.37;94958.70;1686309;84;21035;-59
2022/10/30 04:03:34;;;;;;;22.82;14.68;;;;;;;10.70;91.56;94954.95;1680782;83;20995;-59
2022/10/30 04:06:01;;;;;;;27.58;12.90;;;;;;;10.72;91.59;94960.78;1690320;84;21152;-59
2022/10/30 04:08:28;;;;;;;24.80;13.83;;;;;;;10.74;91.79;94959.89;1687475;83;21003;-59
2022/10/30 04:10:56;;;;;;;22.35;13.58;;;;;;;10.79;92.21;94957.20;1686555;84;21118;-58
2022/10/30 04:13:25;;;;;;;18.90;12.30;;;;;;;10.89;92.41;94955.47;1687357;83;21032;-60
2022/10/30 04:15:52;;;;;;;18.67;12.53;;;;;;;10.96;92.33;94956.59;1687018;84;21023;-58
2022/10/30 04:18:21;;;;;;;18.67;13.22;;;;;;;11.04;92.27;94952.41;1680744;84;22010;-59
2022/10/30 04:20:49;;;;;;;19.15;14.15;;;;;;;11.13;92.07;94951.09;1691163;84;21035;-59
2022/10/30 04:23:18;;;;;;;22.22;14.60;;;;;;;11.19;91.87;94958.19;1688822;84;21121;-59
2022/10/30 04:25:45;;;;;;;23.65;14.47;;;;;;;11.20;91.21;94953.59;1685083;84;21579;-59
2022/10/30 04:28:12;;;;;;;27.27;14.90;;;;;;;11.14;91.11;94960.89;1680405;83;21583;-59
2022/10/30 04:30:39;;;;;;;24.43;15.85;;;;;;;11.13;91.11;94957.98;1689394;84;21256;-59
2022/10/30 04:33:12;;;;;;;26.35;17.62;;;;;;;11.11;91.15;94950.78;1681083;84;21087;-59
2022/10/30 04:35:41;;;;;;;23.52;15.45;;;;;;;11.09;91.16;94954.59;1656380;85;21009;-58
2022/10/30 04:38:12;;;;;;;24.80;15.78;;;;;;;11.07;91.22;94946.00;1657832;83;21134;-59
2022/10/30 04:40:42;;;;;;;22.42;15.15;;;;;;;11.07;91.18;94954.27;1687528;84;21035;-60
2022/10/30 04:43:12;;;;;;;21.93;13.53;;;;;;;11.07;91.21;94947.38;1658782;85;21312;-59
2022/10/30 04:45:40;;;;;;;23.73;15.53;;;;;;;11.10;91.17;94949.23;1673223;84;21008;-59
2022/10/30 04:48:14;;;;;;;28.85;17.12;;;;;;;11.12;90.95;94950.16;1682362;84;21007;-60
2022/10/30 04:50:43;;;;;;;33.10;20.27;;;;;;;11.09;90.96;94944.95;1689355;83;21250;-59
2022/10/30 04:53:17;;;;;;;33.75;21.12;;;;;;;11.11;91.21;94945.27;1688218;83;21011;-59
2022/10/30 04:55:47;;;;;;;31.52;18.15;;;;;;;11.11;91.30;94948.61;1684255;83;21127;-60
2022/10/30 04:58:14;;;;;;;29.72;16.62;;;;;;;11.10;91.07;94943.73;1683563;83;21097;-60
2022/10/30 05:00:44;;;;;;;25.85;18.10;;;;;;;11.08;91.26;94939.28;1672058;84;21002;-60
2022/10/30 05:03:18;;;;;;;31.00;17.85;;;;;;;11.12;91.44;94952.31;1688087;81;21100;-58
2022/10/30 05:05:47;;;;;;;30.95;20.60;;;;;;;11.15;91.67;94956.17;1685483;84;21050;-59
2022/10/30 05:08:14;;;;;;;33.45;21.20;;;;;;;11.18;91.56;94964.29;1684802;84;22177;-59
2022/10/30 05:10:41;;;;;;;34.35;20.08;;;;;;;11.19;91.75;94957.56;1682042;84;21440;-58
2022/10/30 05:13:11;;;;;;;27.93;16.65;;;;;;;11.23;91.83;94965.72;1683106;82;21102;-59
2022/10/30 05:15:38;;;;;;;27.60;16.23;;;;;;;11.28;91.84;94973.41;1675011;84;21048;-59
2022/10/30 05:18:06;;;;;;;29.02;18.87;;;;;;;11.29;91.37;94972.97;1664813;84;21078;-59
2022/10/30 05:20:32;;;;;;;27.07;18.67;;;;;;;11.26;90.94;94982.12;1657638;85;21264;-59
2022/10/30 05:23:01;;;;;;;32.20;21.02;;;;;;;11.20;90.86;94985.27;1681792;84;20983;-60
2022/10/30 05:25:28;;;;;;;30.10;21.60;;;;;;;11.13;91.02;94971.75;1684473;84;20984;-60
2022/10/30 05:28:00;;;;;;;29.05;19.48;;;;;;;11.10;91.23;94968.52;1689628;84;21642;-59
2022/10/30 05:30:30;;;;;;;24.18;17.67;;;;;;;11.10;91.41;94975.40;1684692;85;21051;-60
2022/10/30 05:33:00;;;;;;;26.93;17.25;;;;;;;11.11;91.47;94970.05;1645323;84;21210;-58
2022/10/30 05:35:28;;;;;;;29.23;18.05;;;;;;;11.09;91.42;94971.11;1678681;84;20995;-59
2022/10/30 05:37:55;;;;;;;31.87;19.65;;;;;;;11.11;91.69;94968.67;1675345;84;21020;-58
2022/10/30 05:40:22;;;;;;;37.38;23.50;;;;;;;11.17;91.60;94968.27;1684393;85;21452;-58
2022/10/30 05:42:49;;;;;;;33.55;23.40;;;;;;;11.23;91.41;94974.77;1688439;84;21031;-59
2022/10/30 05:45:17;;;;;;;37.80;26.40;;;;;;;11.29;91.54;94971.59;1643248;85;21861;-59
2022/10/30 05:47:58;;;;;;;32.28;24.25;;;;;;;11.33;91.69;94972.23;1645091;85;21023;-60
2022/10/30 05:50:25;;;;;;;38.00;23.57;;;;;;;11.35;91.64;94971.80;1657819;85;21171;-59
2022/10/30 05:52:58;;;;;;;37.63;23.43;;;;;;;11.36;91.64;94975.47;1676952;84;21039;-59
2022/10/30 05:55:26;;;;;;;40.40;24.47;;;;;;;11.35;91.62;94977.31;1688536;84;21018;-59
2022/10/30 05:58:10;;;;;;;44.13;27.67;;;;;;;11.37;91.53;94965.98;1686146;83;22114;-60
2022/10/30 06:00:39;;;;;;;58.68;28.62;;;;;;;11.42;91.80;94977.84;1681026;83;21091;-59
2022/10/30 06:03:11;;;;;;;37.60;25.30;;;;;;;11.49;91.73;94980.95;1683562;83;21571;-60
2022/10/30 06:05:44;;;;;;;42.25;25.75;;;;;;;11.54;91.52;94974.23;1683122;84;21532;-59
2022/10/30 06:08:10;;;;;;;39.83;23.70;;;;;;;11.55;91.40;94970.27;1686752;84;21119;-60
2022/10/30 06:10:39;;;;;;;37.38;23.70;;;;;;;11.59;91.31;94979.83;1689523;84;21027;-59
2022/10/30 06:13:10;;;;;;;43.00;26.12;;;;;;;11.64;91.50;94983.38;1686864;84;21022;-60
2022/10/30 06:15:42;;;;;;;47.45;29.98;;;;;;;11.70;91.18;94982.98;1675464;84;21126;-60
2022/10/30 06:18:09;;;;;;;44.40;29.35;;;;;;;11.70;91.14;94996.14;1693296;84;21142;-61
2022/10/30 06:20:43;;;;;;;37.67;24.72;;;;;;;11.74;90.81;94992.64;1694142;83;21075;-60
2022/10/30 06:23:16;;;;;;;;;;;;;;;11.71;90.50;94985.27;1622867;85;21509;-59
2022/10/30 06:25:45;;;;;;;32.45;19.73;;;;;;;11.68;90.40;94988.17;1680607;84;20194;-59
2022/10/30 06:28:23;;;;;;;31.82;19.60;;;;;;;11.66;90.33;94985.08;1687397;83;20963;-60
2022/10/30 06:30:54;;;;;;;40.50;22.45;;;;;;;11.63;90.23;94986.76;1683158;83;21107;-60
2022/10/30 06:33:22;;;;;;;34.60;22.75;;;;;;;11.68;90.60;94987.55;1651744;85;20982;-60
2022/10/30 06:35:51;;;;;;;32.73;23.40;;;;;;;11.78;90.27;94987.02;1649072;86;21280;-61
2022/10/30 06:38:20;;;;;;;41.05;23.35;;;;;;;11.81;89.85;95002.05;1661933;84;20978;-59
2022/10/30 06:40:49;;;;;;;37.55;21.85;;;;;;;11.90;90.01;94999.97;1660616;85;21522;-59
2022/10/30 06:43:18;;;;;;;35.50;23.00;;;;;;;12.04;89.67;94988.43;1640412;85;21052;-59
2022/10/30 06:45:47;;;;;;;39.13;24.95;;;;;;;12.16;89.45;94999.97;1669474;83;21080;-59
2022/10/30 06:48:14;;;;;;;39.40;26.07;;;;;;;12.27;89.38;95001.11;1660141;85;21170;-58
2022/10/30 06:50:44;;;;;;;42.88;26.30;;;;;;;12.41;89.14;94997.82;1638584;86;21511;-61
2022/10/30 06:53:11;;;;;;;41.10;24.37;;;;;;;12.50;88.68;94997.88;1650637;85;21569;-58
2022/10/30 06:55:40;;;;;;;35.50;22.77;;;;;;;12.59;88.62;95006.19;1670641;84;21056;-59
2022/10/30 06:58:11;;;;;;;36.93;24.15;;;;;;;12.69;88.12;95012.67;1636711;85;21759;-60
2022/10/30 07:00:43;;;;;;;46.25;28.07;;;;;;;12.78;87.83;95007.80;1663974;85;21186;-60
2022/10/30 07:03:16;;;;;;;49.85;26.75;;;;;;;12.86;87.92;95012.59;1639377;86;21093;-60
2022/10/30 07:05:45;;;;;;;50.55;31.52;;;;;;;12.97;87.33;95014.35;1644423;86;21129;-61
2022/10/30 07:08:12;;;;;;;59.75;29.42;;;;;;;13.06;86.83;95010.84;1674806;84;20988;-59
2022/10/30 07:10:39;;;;;;;48.38;27.80;;;;;;;13.14;86.57;94998.27;1672398;85;21157;-59
2022/10/30 07:13:18;;;;;;;67.85;40.05;;;;;;;13.17;86.04;94989.06;1658693;85;21891;-59
2022/10/30 07:15:47;;;;;;;62.83;39.27;;;;;;;13.18;85.76;94996.13;1652974;85;21618;-59
2022/10/30 07:18:15;;;;;;;67.60;40.23;;;;;;;13.22;85.81;94986.47;1640236;85;21050;-59
2022/10/30 07:20:43;;;;;;;70.40;41.28;;;;;;;13.32;85.82;94997.70;1680237;84;20983;-59
2022/10/30 07:23:11;;;;;;;73.67;43.28;;;;;;;13.46;86.31;94990.81;1692092;84;20972;-59
2022/10/30 07:25:37;;;;;;;47.62;31.55;;;;;;;13.60;86.29;94984.05;1667992;85;21910;-59
2022/10/30 07:28:06;;;;;;;36.05;25.52;;;;;;;13.76;85.76;94980.20;1683331;84;21547;-60
2022/10/30 07:30:38;;;;;;;32.03;22.98;;;;;;;13.85;85.07;94980.21;1641727;85;21028;-59
2022/10/30 07:33:20;;;;;;;36.33;23.75;;;;;;;13.87;84.81;94981.30;1681146;84;21039;-60
2022/10/30 07:36:06;;;;;;;28.77;21.55;;;;;;;13.86;84.34;94978.98;1646533;84;21333;-59
2022/10/30 07:38:53;;;;;;;35.25;23.40;;;;;;;13.83;84.17;94977.14;1638721;86;21301;-60
2022/10/30 07:41:25;;;;;;;40.65;23.85;;;;;;;13.82;83.97;94976.36;1670229;84;21016;-62
2022/10/30 07:43:54;;;;;;;35.25;23.30;;;;;;;13.88;83.90;94977.90;1650282;84;21034;-60
2022/10/30 07:46:26;;;;;;;35.90;23.83;;;;;;;13.97;83.93;94973.76;1677569;84;21119;-60
2022/10/30 07:49:02;;;;;;;35.05;23.95;;;;;;;14.09;83.76;94972.80;1683560;84;21109;-60
2022/10/30 07:51:30;;;;;;;34.88;24.90;;;;;;;14.28;83.46;94975.70;1680919;84;21250;-60
2022/10/30 07:53:57;;;;;;;38.55;26.23;;;;;;;14.43;82.63;94980.74;1684316;84;21027;-60
2022/10/30 07:56:24;;;;;;;32.80;19.75;;;;;;;14.56;82.42;94980.09;1682053;83;20999;-60
2022/10/30 07:59:09;;;;;;;29.72;16.30;;;;;;;14.74;81.68;94968.16;1681025;84;21514;-60
2022/10/30 08:01:55;;;;;;;25.43;15.78;;;;;;;14.94;80.23;94972.53;1673391;84;21106;-60
2022/10/30 08:04:23;;;;;;;36.65;18.42;;;;;;;15.07;78.51;94966.16;1643062;85;21265;-59
2022/10/30 08:06:52;;;;;;;24.92;18.75;;;;;;;15.11;77.54;94959.21;1648344;83;21025;-60
2022/10/30 08:09:19;;;;;;;32.75;18.87;;;;;;;15.12;76.94;94957.97;1672095;85;21130;-60
2022/10/30 08:11:48;;;;;;;25.45;18.23;;;;;;;15.14;76.65;94946.43;1664042;83;21043;-58
2022/10/30 08:14:16;;;;;;;30.20;19.15;;;;;;;15.10;76.33;94945.20;1650221;85;21035;-60
2022/10/30 08:16:42;;;;;;;27.45;17.87;;;;;;;15.05;75.90;94952.80;1653712;85;21325;-60
2022/10/30 08:19:10;;;;;;;27.85;20.43;;;;;;;15.07;76.05;94942.61;1634815;85;21074;-59
2022/10/30 08:21:39;;;;;;;26.48;17.85;;;;;;;15.08;76.17;94936.61;1658338;85;21021;-59
2022/10/30 08:24:09;;;;;;;24.92;17.42;;;;;;;15.09;75.82;94938.74;1689574;84;21036;-60
2022/10/30 08:26:38;;;;;;;24.40;18.15;;;;;;;15.06;75.97;94944.62;1681939;84;21039;-59
2022/10/30 08:29:06;;;;;;;27.10;18.73;;;;;;;15.04;76.09;94937.38;1684497;84;21337;-59
2022/10/30 08:31:34;;;;;;;27.77;18.87;;;;;;;15.06;76.39;94955.70;1651299;85;21553;-61
2022/10/30 08:34:01;;;;;;;25.30;17.15;;;;;;;15.08;76.48;94956.00;1665666;85;21431;-59
2022/10/30 08:36:49;;;;;;;27.98;16.85;;;;;;;15.10;76.21;94946.59;1657466;86;21042;-59
2022/10/30 08:39:17;;;;;;;32.00;20.68;;;;;;;15.14;76.02;94947.18;1658641;86;21045;-58
2022/10/30 08:41:46;;;;;;;34.23;19.77;;;;;;;15.20;75.77;94950.83;1657443;86;21321;-59
2022/10/30 08:44:13;;;;;;;36.13;20.30;;;;;;;15.19;75.47;94946.52;1658502;86;21037;-60
2022/10/30 08:46:44;;;;;;;27.20;19.62;;;;;;;15.20;75.36;94952.84;1654766;86;21291;-60
2022/10/30 08:49:12;;;;;;;32.73;18.62;;;;;;;15.21;75.66;94949.59;1658527;86;21025;-59
2022/10/30 08:51:43;;;;;;;35.35;19.85;;;;;;;15.17;75.74;94949.00;1638159;86;20982;-59
2022/10/30 08:54:11;;;;;;;30.60;20.48;;;;;;;15.16;75.83;94951.62;1658608;86;21312;-60
2022/10/30 08:56:39;;;;;;;34.58;19.10;;;;;;;15.17;75.83;94950.39;1658509;86;21086;-63
2022/10/30 08:59:08;;;;;;;38.88;22.40;;;;;;;15.17;75.95;94953.16;1658455;86;21049;-62
2022/10/30 09:01:37;;;;;;;37.90;22.75;;;;;;;15.17;76.08;94951.78;1655804;85;21109;-61
2022/10/30 09:04:08;;;;;;;41.50;25.57;;;;;;;15.19;76.28;94950.69;1586556;86;21087;-60
2022/10/30 09:06:54;;;;;;;81.20;43.65;;;;;;;15.17;76.28;94949.00;1676269;85;21123;-63
2022/10/30 09:09:41;;;;;;;60.65;29.02;;;;;;;15.19;76.23;94943.00;1577092;89;21020;-63
2022/10/30 09:12:08;;;;;;;58.20;30.55;;;;;;;15.24;75.79;94938.97;1551115;89;21102;-61
2022/10/30 09:14:40;;;;;;;45.95;28.32;;;;;;;15.28;75.33;94940.16;1620407;85;21066;-61
2022/10/30 09:17:09;;;;;;;54.67;30.82;;;;;;;15.33;75.44;94947.23;1634634;86;21438;-61
2022/10/30 09:19:37;;;;;;;50.38;32.08;;;;;;;15.33;75.09;94931.23;1625982;86;21840;-61
2022/10/30 09:22:05;;;;;;;43.52;22.75;;;;;;;15.36;75.08;94928.27;1637719;86;21030;-59
2022/10/30 09:24:33;;;;;;;34.70;18.12;;;;;;;15.43;74.75;94931.30;1651195;86;21072;-61
2022/10/30 09:27:04;;;;;;;24.02;17.57;;;;;;;15.46;74.32;94931.13;1635739;85;21452;-61
2022/10/30 09:29:34;;;;;;;32.42;19.90;;;;;;;15.47;73.83;94929.89;1651589;86;21128;-62
2022/10/30 09:32:09;;;;;;;35.70;24.65;;;;;;;15.48;73.55;94937.58;1649272;86;21170;-59
2022/10/30 09:34:38;;;;;;;43.87;26.23;;;;;;;15.48;73.43;94932.81;1629537;86;21141;-59
2022/10/30 09:37:22;;;;;;;68.83;42.45;;;;;;;15.50;73.08;94931.71;1651433;86;21014;-59
2022/10/30 09:39:50;;;;;;;36.95;23.05;;;;;;;15.49;72.84;94934.34;1639920;85;21153;-60
2022/10/30 09:42:46;;;;;;;36.95;22.13;;;;;;;15.48;72.95;94934.20;1634023;86;20990;-59
2022/10/30 09:45:46;;;;;;;29.40;18.57;;;;;;;15.49;72.79;94929.40;1660480;84;21272;-60
2022/10/30 09:48:37;;;;;;;24.72;17.62;;;;;;;15.45;72.29;94930.98;1644577;85;20982;-61
2022/10/30 09:51:33;;;;;;;29.67;20.82;;;;;;;15.40;72.54;94921.91;1632729;86;21085;-61
2022/10/30 09:54:21;;;;;;;22.50;16.05;;;;;;;15.37;72.62;94926.28;1622111;86;21109;-63
2022/10/30 09:57:02;;;;;;;20.80;13.13;;;;;;;15.37;72.61;94922.11;1629659;86;21085;-61
2022/10/30 09:59:59;;;;;;;20.80;12.30;;;;;;;15.39;72.29;94929.34;1656077;85;21889;-61
2022/10/30 10:02:46;;;;;;;25.17;13.43;;;;;;;15.46;72.37;94923.42;1630425;86;21081;-59
2022/10/30 10:05:28;;;;;;;35.13;22.17;;;;;;;15.57;72.05;94929.95;1586102;87;21478;-59
2022/10/30 10:08:18;;;;;;;34.03;20.25;;;;;;;15.59;71.86;94917.78;1572854;89;21130;-60
2022/10/30 10:10:53;;;;;;;37.28;19.05;;;;;;;15.62;71.90;94920.21;1576135;89;21010;-63
2022/10/30 10:13:31;;;;;;;32.17;16.00;;;;;;;15.68;71.89;94905.21;1642837;86;21136;-60
2022/10/30 10:16:26;;;;;;;30.57;16.15;;;;;;;15.72;71.79;94904.40;1629847;86;21069;-63
2022/10/30 10:19:01;;;;;;;24.20;14.20;;;;;;;15.78;71.77;94910.05;1637493;86;21034;-59
2022/10/30 10:21:29;;;;;;;39.23;16.82;;;;;;;15.84;71.69;94893.66;1638392;85;21101;-61
2022/10/30 10:24:02;;;;;;;25.00;14.23;;;;;;;15.91;71.53;94901.59;1647244;84;21034;-61
2022/10/30 10:26:51;;;;;;;25.48;15.83;;;;;;;15.98;71.33;94899.84;1643780;86;21598;-60
2022/10/30 10:29:35;;;;;;;29.02;18.05;;;;;;;16.05;71.17;94900.84;1629811;86;21240;-60
2022/10/30 10:32:11;;;;;;;24.70;15.60;;;;;;;16.16;71.16;94892.72;1629192;86;21535;-59
2022/10/30 10:35:09;;;;;;;21.10;15.53;;;;;;;16.27;70.72;94891.50;1637387;86;21542;-59
2022/10/30 10:37:57;;;;;;;26.02;19.15;;;;;;;16.32;70.08;94888.04;1622810;88;21084;-59
2022/10/30 10:41:00;;;;;;;26.87;14.83;;;;;;;16.38;70.07;94887.55;1600692;89;21137;-60
2022/10/30 10:44:12;;;;;;;20.13;13.67;;;;;;;16.44;69.74;94885.63;1623402;86;21121;-60
2022/10/30 10:47:02;;;;;;;14.75;10.65;;;;;;;16.52;69.26;94875.66;1653633;86;21001;-60
2022/10/30 10:49:54;;;;;;;14.75;11.97;;;;;;;16.58;68.92;94876.50;1646824;85;21102;-59
2022/10/30 10:52:46;;;;;;;17.55;12.07;;;;;;;16.66;68.91;94863.73;1661298;85;20983;-59
2022/10/30 10:55:30;;;;;;;22.50;13.75;;;;;;;16.76;68.56;94863.77;1659968;85;21180;-60
2022/10/30 10:58:00;;;;;;;22.67;14.20;;;;;;;16.88;68.46;94857.13;1636806;85;21089;-60
2022/10/30 11:00:27;;;;;;;23.40;13.58;;;;;;;16.98;67.89;94854.33;1643471;85;21545;-60
2022/10/30 11:03:10;;;;;;;16.10;10.58;;;;;;;17.06;67.45;94853.44;1640264;85;21755;-60
2022/10/30 11:05:48;;;;;;;22.93;11.28;;;;;;;17.13;66.62;94846.06;1638813;85;21047;-61
2022/10/30 11:08:31;;;;;;;15.13;11.33;;;;;;;17.19;66.28;94837.79;1650201;86;21026;-60
2022/10/30 11:11:02;;;;;;;19.20;11.10;;;;;;;17.27;66.07;94840.30;1661528;85;21091;-59
2022/10/30 11:13:34;;;;;;;13.90;10.68;;;;;;;17.39;65.72;94839.19;1650430;84;21053;-60
2022/10/30 11:16:28;;;;;;;17.57;10.30;;;;;;;17.50;65.35;94842.11;1676783;84;21025;-61
2022/10/30 11:18:58;;;;;;;17.98;9.80;;;;;;;17.57;65.06;94833.32;1664771;85;21664;-61
2022/10/30 11:21:26;;;;;;;26.57;13.55;;;;;;;17.58;64.62;94841.19;1667762;84;21740;-61
2022/10/30 11:23:54;;;;;;;13.88;10.00;;;;;;;17.54;65.20;94831.52;1680495;83;21018;-62
2022/10/30 11:26:29;;;;;;;26.02;14.05;;;;;;;17.50;64.92;94826.81;1680508;84;21085;-61
2022/10/30 11:29:13;;;;;;;16.35;11.18;;;;;;;17.45;65.16;94828.91;1694664;84;20990;-60
2022/10/30 11:31:42;;;;;;;18.50;10.55;;;;;;;17.37;64.93;94832.75;1689565;84;21494;-57
2022/10/30 11:34:26;;;;;;;18.17;12.10;;;;;;;17.30;64.86;94830.98;1694151;83;21887;-59
2022/10/30 11:36:53;;;;;;;19.25;12.50;;;;;;;17.22;65.09;94829.86;1677714;83;21454;-59
2022/10/30 11:39:27;;;;;;;19.52;14.07;;;;;;;17.13;65.63;94818.90;1691258;84;21053;-60
2022/10/30 11:42:02;;;;;;;21.50;13.43;;;;;;;17.05;66.29;94812.20;1674212;83;21060;-62
2022/10/30 11:44:48;;;;;;;26.93;14.55;;;;;;;17.03;66.75;94813.33;1659260;84;21090;-58